createdAt,value
2022-10-19T00:01:25.401Z,21.76
2022-10-19T00:03:55.929Z,21.80
2022-10-19T00:06:27.863Z,21.80
2022-10-19T00:08:58.976Z,21.84
2022-10-19T00:11:29.838Z,21.85
2022-10-19T00:13:59.980Z,21.87
2022-10-19T00:16:30.840Z,21.87
2022-10-19T00:19:00.680Z,21.86
2022-10-19T00:21:29.597Z,21.86
2022-10-19T00:23:57.992Z,21.84
2022-10-19T00:26:28.167Z,21.83
2022-10-19T00:28:57.771Z,21.83
2022-10-19T00:31:27.083Z,21.79
2022-10-19T00:33:58.831Z,21.79
2022-10-19T00:36:29.376Z,21.79
2022-10-19T00:38:58.839Z,21.76
2022-10-19T00:41:31.501Z,21.73
2022-10-19T00:44:03.054Z,21.71
2022-10-19T00:46:33.839Z,21.68
2022-10-19T00:49:08.405Z,21.65
2022-10-19T00:51:43.153Z,21.61
2022-10-19T00:54:12.653Z,21.57
2022-10-19T00:56:44.721Z,21.51
2022-10-19T00:59:16.093Z,21.46
2022-10-19T01:01:46.021Z,21.42
2022-10-19T01:04:15.063Z,21.39
2022-10-19T01:06:44.059Z,21.37
2022-10-19T01:09:12.545Z,21.36
2022-10-19T01:11:53.819Z,21.32
2022-10-19T01:14:37.652Z,21.31
2022-10-19T01:17:17.852Z,21.31
2022-10-19T01:20:31.661Z,21.25
2022-10-19T01:23:31.814Z,21.25
2022-10-19T01:26:14.823Z,21.25
2022-10-19T01:29:03.925Z,21.25
2022-10-19T01:31:42.986Z,21.26
2022-10-19T01:34:19.001Z,21.26
2022-10-19T01:36:59.006Z,21.24
2022-10-19T01:39:39.761Z,21.22
2022-10-19T01:42:15.930Z,21.20
2022-10-19T01:44:51.705Z,21.19
2022-10-19T01:47:27.427Z,21.18
2022-10-19T01:50:03.317Z,21.17
2022-10-19T01:52:33.447Z,21.17
2022-10-19T01:55:04.541Z,21.15
2022-10-19T01:57:49.453Z,21.11
2022-10-19T02:00:18.719Z,21.10
2022-10-19T02:02:52.150Z,21.09
2022-10-19T02:05:32.328Z,21.05
2022-10-19T02:08:05.671Z,21.02
2022-10-19T02:10:38.706Z,20.98
2022-10-19T02:13:09.092Z,20.95
2022-10-19T02:15:42.057Z,20.90
2022-10-19T02:18:13.864Z,20.86
2022-10-19T02:20:42.298Z,20.80
2022-10-19T02:23:11.068Z,20.73
2022-10-19T02:25:39.507Z,20.66
2022-10-19T02:28:07.934Z,20.60
2022-10-19T02:30:36.398Z,20.53
2022-10-19T02:33:04.927Z,20.47
2022-10-19T02:35:34.954Z,20.40
2022-10-19T02:38:05.688Z,20.33
2022-10-19T02:40:40.889Z,20.24
2022-10-19T02:43:15.181Z,20.16
2022-10-19T02:45:51.199Z,20.10
2022-10-19T02:48:25.743Z,20.04
2022-10-19T02:50:55.467Z,19.97
2022-10-19T02:53:23.832Z,19.93
2022-10-19T02:55:53.487Z,19.86
2022-10-19T02:58:21.867Z,19.81
2022-10-19T03:00:50.323Z,19.77
2022-10-19T03:03:18.813Z,19.72
2022-10-19T03:05:47.167Z,19.67
2022-10-19T03:08:16.930Z,19.62
2022-10-19T03:10:45.251Z,19.59
2022-10-19T03:13:13.590Z,19.55
2022-10-19T03:15:41.981Z,19.51
2022-10-19T03:18:10.332Z,19.48
2022-10-19T03:20:38.654Z,19.45
2022-10-19T03:23:06.986Z,19.41
2022-10-19T03:25:36.729Z,19.38
2022-10-19T03:28:05.154Z,19.33
2022-10-19T03:30:33.571Z,19.30
2022-10-19T03:33:01.887Z,19.27
2022-10-19T03:35:30.345Z,19.24
2022-10-19T03:37:58.641Z,19.21
2022-10-19T03:40:27.064Z,19.18
2022-10-19T03:42:56.771Z,19.16
2022-10-19T03:45:25.297Z,19.13
2022-10-19T03:47:53.876Z,19.12
2022-10-19T03:50:22.272Z,19.10
2022-10-19T03:52:50.798Z,19.10
2022-10-19T03:55:19.563Z,19.07
2022-10-19T03:57:47.907Z,19.06
2022-10-19T04:00:18.063Z,19.04
2022-10-19T04:02:46.411Z,19.03
2022-10-19T04:05:15.010Z,18.99
2022-10-19T04:07:43.359Z,18.98
2022-10-19T04:10:11.740Z,18.96
2022-10-19T04:12:40.088Z,18.92
2022-10-19T04:15:10.406Z,18.90
2022-10-19T04:17:40.106Z,18.88
2022-10-19T04:20:10.172Z,18.88
2022-10-19T04:22:38.536Z,18.86
2022-10-19T04:25:11.282Z,18.84
2022-10-19T04:27:39.777Z,18.83
2022-10-19T04:30:09.644Z,18.80
2022-10-19T04:32:39.401Z,18.80
2022-10-19T04:35:09.209Z,18.78
2022-10-19T04:37:37.572Z,18.76
2022-10-19T04:40:11.531Z,18.75
2022-10-19T04:42:43.170Z,18.74
2022-10-19T04:45:12.552Z,18.74
2022-10-19T04:47:42.275Z,18.71
2022-10-19T04:50:11.344Z,18.71
2022-10-19T04:52:39.717Z,18.69
2022-10-19T04:55:09.193Z,18.67
2022-10-19T04:57:37.536Z,18.67
2022-10-19T05:00:07.821Z,18.66
2022-10-19T05:02:36.195Z,18.65
2022-10-19T05:05:07.306Z,18.64
2022-10-19T05:07:35.872Z,18.62
2022-10-19T05:10:04.954Z,18.60
2022-10-19T05:12:33.403Z,18.58
2022-10-19T05:15:01.748Z,18.56
2022-10-19T05:17:32.075Z,18.54
2022-10-19T05:20:00.703Z,18.54
2022-10-19T05:22:30.515Z,18.52
2022-10-19T05:24:58.874Z,18.52
2022-10-19T05:27:27.264Z,18.52
2022-10-19T05:29:55.628Z,18.52
2022-10-19T05:32:23.976Z,18.54
2022-10-19T05:34:52.309Z,18.57
2022-10-19T05:37:21.714Z,18.60
2022-10-19T05:39:51.494Z,18.63
2022-10-19T05:42:19.851Z,18.65
2022-10-19T05:44:48.238Z,18.65
2022-10-19T05:47:16.664Z,18.66
2022-10-19T05:49:45.029Z,18.67
2022-10-19T05:52:13.870Z,18.67
2022-10-19T05:54:42.247Z,18.67
2022-10-19T05:57:11.998Z,18.66
2022-10-19T05:59:40.422Z,18.66
2022-10-19T06:02:14.159Z,18.68
2022-10-19T06:04:42.647Z,18.70
2022-10-19T06:07:11.011Z,18.70
2022-10-19T06:09:39.407Z,18.72
2022-10-19T06:12:07.944Z,18.74
2022-10-19T06:14:37.781Z,18.75
2022-10-19T06:17:06.763Z,18.78
2022-10-19T06:19:35.145Z,18.81
2022-10-19T06:22:03.622Z,18.84
2022-10-19T06:24:32.292Z,18.86
2022-10-19T06:27:00.628Z,18.89
2022-10-19T06:29:29.089Z,18.91
2022-10-19T06:32:00.296Z,18.94
2022-10-19T06:34:28.690Z,18.97
2022-10-19T06:36:57.116Z,19.00
2022-10-19T06:39:25.511Z,19.01
2022-10-19T06:41:53.854Z,19.02
2022-10-19T06:44:22.636Z,19.03
2022-10-19T06:46:51.038Z,19.07
2022-10-19T06:49:20.970Z,19.09
2022-10-19T06:51:49.324Z,19.14
2022-10-19T06:54:17.694Z,19.19
2022-10-19T06:56:46.115Z,19.25
2022-10-19T06:59:14.987Z,19.31
2022-10-19T07:01:43.599Z,19.39
2022-10-19T07:04:12.086Z,19.47
2022-10-19T07:06:41.917Z,19.53
2022-10-19T07:09:10.379Z,19.62
2022-10-19T07:11:45.522Z,19.71
2022-10-19T07:14:14.444Z,19.80
2022-10-19T07:16:42.826Z,19.88
2022-10-19T07:19:11.746Z,19.96
2022-10-19T07:21:43.065Z,20.05
2022-10-19T07:24:11.531Z,20.13
2022-10-19T07:26:39.935Z,20.20
2022-10-19T07:29:08.460Z,20.28
2022-10-19T07:31:36.907Z,20.36
2022-10-19T07:34:07.047Z,20.43
2022-10-19T07:36:37.060Z,20.51
2022-10-19T07:39:08.764Z,20.54
2022-10-19T07:41:37.276Z,20.62
2022-10-19T07:44:06.597Z,20.75
2022-10-19T07:46:37.247Z,20.89
2022-10-19T07:49:09.817Z,21.01
2022-10-19T07:51:39.258Z,21.16
2022-10-19T07:54:09.179Z,21.27
2022-10-19T07:56:38.055Z,21.37
2022-10-19T07:59:06.539Z,21.46
2022-10-19T08:01:40.953Z,21.51
2022-10-19T08:06:58.073Z,21.75
2022-10-19T08:09:51.504Z,21.85
2022-10-19T08:12:16.609Z,21.98
2022-10-19T08:14:45.015Z,22.05
2022-10-19T08:17:17.472Z,22.12
2022-10-19T08:19:46.303Z,22.19
2022-10-19T08:22:14.879Z,22.22
2022-10-19T08:24:44.649Z,22.24
2022-10-19T08:27:14.873Z,22.30
2022-10-19T08:29:43.272Z,22.38
2022-10-19T08:32:11.692Z,22.48
2022-10-19T08:34:40.283Z,22.53
2022-10-19T08:37:19.832Z,22.56
2022-10-19T08:39:58.583Z,22.53
2022-10-19T08:42:35.315Z,22.51
2022-10-19T08:45:42.631Z,22.54
2022-10-19T08:48:28.604Z,22.64
2022-10-19T08:50:59.617Z,22.72
2022-10-19T08:53:38.774Z,22.75
2022-10-19T08:59:41.624Z,22.92
2022-10-19T09:02:19.854Z,23.02
2022-10-19T09:04:57.197Z,23.09
2022-10-19T09:07:29.243Z,23.14
2022-10-19T09:10:02.410Z,23.17
2022-10-19T09:12:43.518Z,23.23
2022-10-19T09:15:17.432Z,23.32
2022-10-19T09:17:45.941Z,23.41
2022-10-19T09:20:21.715Z,23.45
2022-10-19T09:22:58.669Z,23.45
2022-10-19T09:25:29.248Z,23.45
2022-10-19T09:28:17.673Z,23.36
2022-10-19T09:30:48.813Z,23.35
2022-10-19T09:33:25.819Z,23.34
2022-10-19T09:35:58.361Z,23.29
2022-10-19T09:38:29.766Z,23.19
2022-10-19T09:40:59.392Z,23.12
2022-10-19T09:43:30.439Z,23.09
2022-10-19T09:46:13.995Z,23.04
2022-10-19T09:48:51.563Z,23.03
2022-10-19T09:51:21.872Z,23.04
2022-10-19T09:53:54.931Z,23.02
2022-10-19T09:56:26.080Z,23.03
2022-10-19T09:58:58.802Z,23.09
2022-10-19T10:01:41.504Z,23.14
2022-10-19T10:04:17.219Z,23.22
2022-10-19T10:06:49.092Z,23.34
2022-10-19T10:09:19.899Z,23.45
2022-10-19T10:11:51.611Z,23.49
2022-10-19T10:14:28.647Z,23.45
2022-10-19T10:16:58.436Z,23.48
2022-10-19T10:19:31.419Z,23.52
2022-10-19T10:22:01.270Z,23.58
2022-10-19T10:24:31.958Z,23.62
2022-10-19T10:27:02.844Z,23.71
2022-10-19T10:29:34.935Z,23.90
2022-10-19T10:32:09.006Z,24.20
2022-10-19T10:34:58.523Z,24.60
2022-10-19T10:37:36.741Z,24.99
2022-10-19T10:40:08.967Z,25.24
2022-10-19T10:42:43.397Z,25.49
2022-10-19T10:45:21.692Z,25.62
2022-10-19T10:47:50.478Z,25.70
2022-10-19T10:50:23.931Z,25.81
2022-10-19T10:53:02.460Z,25.92
2022-10-19T10:55:32.641Z,26.14
2022-10-19T10:58:16.699Z,26.54
2022-10-19T11:00:48.794Z,27.03
2022-10-19T11:03:23.919Z,27.24
2022-10-19T11:05:58.108Z,27.21
2022-10-19T11:08:33.108Z,27.22
2022-10-19T11:11:14.064Z,27.38
2022-10-19T11:13:48.872Z,27.59
2022-10-19T11:16:20.902Z,27.80
2022-10-19T11:18:54.764Z,28.08
2022-10-19T11:21:32.221Z,28.40
2022-10-19T11:24:11.411Z,28.86
2022-10-19T11:27:03.032Z,29.24
2022-10-19T11:30:03.304Z,29.29
2022-10-19T11:32:51.100Z,29.35
2022-10-19T11:35:40.924Z,29.14
2022-10-19T11:38:49.589Z,29.11
2022-10-19T11:41:30.179Z,29.45
2022-10-19T11:44:13.763Z,29.86
2022-10-19T11:46:56.728Z,30.39
2022-10-19T11:49:44.103Z,30.94
2022-10-19T11:52:18.571Z,31.55
2022-10-19T11:55:04.144Z,32.00
2022-10-19T11:57:40.205Z,32.29
2022-10-19T12:00:15.128Z,32.10
2022-10-19T12:03:28.231Z,32.07
2022-10-19T12:06:11.022Z,32.19
2022-10-19T12:09:02.410Z,32.31
2022-10-19T12:11:54.461Z,32.56
2022-10-19T12:14:27.717Z,32.81
2022-10-19T12:17:01.217Z,33.10
2022-10-19T12:19:37.689Z,33.37
2022-10-19T12:22:13.961Z,33.52
2022-10-19T12:24:42.422Z,33.63
2022-10-19T12:27:14.987Z,33.73
2022-10-19T12:29:48.539Z,33.80
2022-10-19T12:32:20.991Z,33.80
2022-10-19T12:35:00.397Z,33.70
2022-10-19T12:37:37.298Z,33.63
2022-10-19T12:40:13.419Z,33.64
2022-10-19T12:42:51.936Z,33.69
2022-10-19T12:45:32.381Z,33.80
2022-10-19T12:48:24.699Z,33.96
2022-10-19T12:51:20.149Z,34.19
2022-10-19T12:53:50.899Z,34.11
2022-10-19T12:56:25.241Z,33.42
2022-10-19T12:58:59.827Z,32.53
2022-10-19T13:01:43.948Z,31.71
2022-10-19T13:04:14.989Z,31.33
2022-10-19T13:06:46.243Z,31.37
2022-10-19T13:09:28.177Z,31.60
2022-10-19T13:12:30.431Z,32.00
2022-10-19T13:15:00.196Z,32.31
2022-10-19T13:17:46.293Z,32.01
2022-10-19T13:20:52.983Z,31.20
2022-10-19T13:23:42.193Z,30.39
2022-10-19T13:26:35.573Z,29.56
2022-10-19T13:29:04.027Z,28.97
2022-10-19T13:31:34.134Z,28.42
2022-10-19T13:34:10.764Z,27.90
2022-10-19T13:36:40.358Z,27.43
2022-10-19T13:39:18.572Z,27.01
2022-10-19T13:41:54.581Z,26.67
2022-10-19T13:44:28.305Z,26.40
2022-10-19T13:50:39.520Z,25.76
2022-10-19T13:53:39.915Z,25.55
2022-10-19T13:56:43.598Z,25.38
2022-10-19T14:00:00.309Z,25.25
2022-10-19T14:03:20.691Z,25.12
2022-10-19T14:06:28.494Z,24.97
2022-10-19T14:09:42.830Z,24.84
2022-10-19T14:12:22.416Z,24.73
2022-10-19T14:14:53.752Z,24.57
2022-10-19T14:17:25.656Z,24.39
2022-10-19T14:19:57.191Z,24.24
2022-10-19T14:22:31.019Z,24.07
2022-10-19T14:25:06.527Z,23.94
2022-10-19T14:27:36.041Z,23.81
2022-10-19T14:30:08.080Z,23.67
2022-10-19T14:32:36.839Z,23.57
2022-10-19T14:35:19.075Z,23.40
2022-10-19T14:37:47.533Z,23.27
2022-10-19T14:40:35.138Z,23.09
2022-10-19T14:43:03.564Z,22.99
2022-10-19T14:45:34.271Z,22.84
2022-10-19T14:48:04.993Z,22.70
2022-10-19T14:50:43.960Z,22.54
2022-10-19T14:53:34.567Z,22.36
2022-10-19T14:56:09.164Z,22.25
2022-10-19T14:58:45.402Z,22.13
2022-10-19T15:01:17.481Z,21.99
2022-10-19T15:03:47.381Z,21.90
2022-10-19T15:06:22.823Z,21.79
2022-10-19T15:08:55.140Z,21.71
2022-10-19T15:11:29.738Z,21.62
2022-10-19T15:14:07.270Z,21.54
2022-10-19T15:16:53.380Z,21.45
2022-10-19T15:19:28.881Z,21.40
2022-10-19T15:22:21.801Z,21.30
2022-10-19T15:25:02.959Z,21.21
2022-10-19T15:27:34.616Z,21.15
2022-10-19T15:30:07.736Z,21.08
2022-10-19T15:32:39.397Z,20.99
2022-10-19T15:35:13.912Z,20.89
2022-10-19T15:37:45.731Z,20.80
2022-10-19T15:40:21.265Z,20.71
2022-10-19T15:42:49.901Z,20.60
2022-10-19T15:45:36.664Z,20.46
2022-10-19T15:48:29.837Z,20.33
2022-10-19T15:50:59.218Z,20.24
2022-10-19T15:53:28.005Z,20.14
2022-10-19T15:55:56.714Z,20.04
2022-10-19T15:58:25.325Z,19.95
2022-10-19T16:00:53.882Z,19.87
2022-10-19T16:03:24.213Z,19.77
2022-10-19T16:05:53.029Z,19.68
2022-10-19T16:08:21.527Z,19.59
2022-10-19T16:10:50.383Z,19.51
2022-10-19T16:13:19.090Z,19.42
2022-10-19T16:15:53.349Z,19.35
2022-10-19T16:18:31.928Z,19.27
2022-10-19T16:21:00.816Z,19.21
2022-10-19T16:23:31.176Z,19.15
2022-10-19T16:25:59.723Z,19.10
2022-10-19T16:28:29.602Z,19.04
2022-10-19T16:30:58.465Z,18.98
2022-10-19T16:33:27.131Z,18.93
2022-10-19T16:35:56.882Z,18.88
2022-10-19T16:38:25.659Z,18.83
2022-10-19T16:40:54.506Z,18.78
2022-10-19T16:43:23.825Z,18.71
2022-10-19T16:45:52.889Z,18.64
2022-10-19T16:48:24.055Z,18.60
2022-10-19T16:51:38.281Z,18.48
2022-10-19T16:54:09.717Z,18.44
2022-10-19T16:56:43.408Z,18.38
2022-10-19T16:59:15.305Z,18.32
2022-10-19T17:01:46.674Z,18.26
2022-10-19T17:04:18.467Z,18.22
2022-10-19T17:06:49.153Z,18.17
2022-10-19T17:12:08.735Z,18.08
2022-10-19T17:14:38.900Z,18.09
2022-10-19T17:17:08.399Z,18.08
2022-10-19T17:19:38.286Z,18.09
2022-10-19T17:22:09.533Z,18.10
2022-10-19T17:24:39.585Z,18.09
2022-10-19T17:27:10.851Z,18.09
2022-10-19T17:29:42.023Z,18.07
2022-10-19T17:32:12.959Z,18.10
2022-10-19T17:34:43.020Z,18.08
2022-10-19T17:37:16.507Z,18.09
2022-10-19T17:39:47.069Z,18.10
2022-10-19T17:42:18.132Z,18.10
2022-10-19T17:44:50.719Z,18.10
2022-10-19T17:47:21.078Z,18.11
2022-10-19T17:49:51.351Z,18.12
2022-10-19T17:52:25.580Z,18.13
2022-10-19T17:57:45.421Z,18.14
2022-10-19T18:00:17.221Z,18.14
2022-10-19T18:02:48.081Z,18.18
2022-10-19T18:05:23.292Z,18.20
2022-10-19T18:07:55.220Z,18.23
2022-10-19T18:10:24.902Z,18.25
2022-10-19T18:12:55.715Z,18.28
2022-10-19T18:15:25.469Z,18.32
2022-10-19T18:17:56.024Z,18.35
2022-10-19T18:20:27.398Z,18.39
2022-10-19T18:23:01.284Z,18.41
2022-10-19T18:25:49.742Z,18.42
2022-10-19T18:28:23.214Z,18.43
2022-10-19T18:30:53.399Z,18.45
2022-10-19T18:33:24.000Z,18.47
2022-10-19T18:35:54.542Z,18.50
2022-10-19T18:38:26.393Z,18.51
2022-10-19T18:40:57.220Z,18.52
2022-10-19T18:43:30.567Z,18.52
2022-10-19T18:46:04.737Z,18.50
2022-10-19T18:48:36.901Z,18.49
2022-10-19T18:51:10.060Z,18.46
2022-10-19T18:53:41.896Z,18.43
2022-10-19T18:56:14.707Z,18.42
2022-10-19T18:58:46.945Z,18.41
2022-10-19T19:01:19.811Z,18.38
2022-10-19T19:03:52.795Z,18.35
2022-10-19T19:06:25.946Z,18.32
2022-10-19T19:09:00.114Z,18.29
2022-10-19T19:11:35.944Z,18.27
2022-10-19T19:14:09.560Z,18.23
2022-10-19T19:16:41.618Z,18.19
2022-10-19T19:19:13.000Z,18.17
2022-10-19T19:21:45.684Z,18.12
2022-10-19T19:24:20.549Z,18.07
2022-10-19T19:26:57.217Z,18.02
2022-10-19T19:29:31.018Z,17.97
2022-10-19T19:32:01.982Z,17.93
2022-10-19T19:34:33.444Z,17.88
2022-10-19T19:37:07.400Z,17.85
2022-10-19T19:39:42.922Z,17.82
2022-10-19T19:42:13.160Z,17.80
2022-10-19T19:44:42.809Z,17.77
2022-10-19T19:47:14.933Z,17.74
2022-10-19T19:49:46.957Z,17.70
2022-10-19T19:52:17.379Z,17.66
2022-10-19T19:54:51.792Z,17.62
2022-10-19T19:57:23.061Z,17.58
2022-10-19T19:59:53.318Z,17.52
2022-10-19T20:02:23.386Z,17.51
2022-10-19T20:04:55.216Z,17.47
2022-10-19T20:07:27.393Z,17.43
2022-10-19T20:10:00.257Z,17.36
2022-10-19T20:12:30.105Z,17.32
2022-10-19T20:14:59.792Z,17.26
2022-10-19T20:17:29.470Z,17.23
2022-10-19T20:20:00.407Z,17.18
2022-10-19T20:22:30.689Z,17.11
2022-10-19T20:25:01.315Z,17.03
2022-10-19T20:27:31.376Z,16.97
2022-10-19T20:30:00.960Z,16.90
2022-10-19T20:32:30.667Z,16.82
2022-10-19T20:35:00.180Z,16.75
2022-10-19T20:37:31.692Z,16.68
2022-10-19T20:40:07.465Z,16.62
2022-10-19T20:42:38.150Z,16.57
2022-10-19T20:45:09.413Z,16.51
2022-10-19T20:47:39.059Z,16.46
2022-10-19T20:50:09.584Z,16.41
2022-10-19T20:52:38.585Z,16.36
2022-10-19T20:55:09.880Z,16.31
2022-10-19T20:57:38.843Z,16.27
2022-10-19T21:00:09.330Z,16.22
2022-10-19T21:02:38.124Z,16.18
2022-10-19T21:05:09.190Z,16.15
2022-10-19T21:07:37.709Z,16.12
2022-10-19T21:10:08.996Z,16.06
2022-10-19T21:12:37.856Z,16.03
2022-10-19T21:15:07.702Z,16.01
2022-10-19T21:17:36.055Z,15.97
2022-10-19T21:20:04.658Z,15.95
2022-10-19T21:22:39.145Z,15.92
2022-10-19T21:25:11.591Z,15.89
2022-10-19T21:27:39.989Z,15.86
2022-10-19T21:30:10.128Z,15.82
2022-10-19T21:32:38.519Z,15.80
2022-10-19T21:35:07.767Z,15.76
2022-10-19T21:37:36.361Z,15.74
2022-10-19T21:40:05.325Z,15.71
2022-10-19T21:42:35.108Z,15.67
2022-10-19T21:45:25.298Z,15.64
2022-10-19T21:47:51.888Z,15.60
2022-10-19T21:50:20.267Z,15.57
2022-10-19T21:52:48.619Z,15.55
2022-10-19T21:55:17.277Z,15.51
2022-10-19T21:57:47.675Z,15.48
2022-10-19T22:00:16.141Z,15.45
2022-10-19T22:02:44.489Z,15.43
2022-10-19T22:05:13.051Z,15.42
2022-10-19T22:07:41.430Z,15.40
2022-10-19T22:10:10.812Z,15.38
2022-10-19T22:12:39.252Z,15.35
2022-10-19T22:15:11.012Z,15.33
2022-10-19T22:17:39.385Z,15.31
2022-10-19T22:20:09.551Z,15.29
2022-10-19T22:22:38.203Z,15.27
2022-10-19T22:25:07.724Z,15.24
2022-10-19T22:27:36.098Z,15.21
2022-10-19T22:30:04.729Z,15.18
2022-10-19T22:32:34.910Z,15.15
2022-10-19T22:35:03.536Z,15.14
2022-10-19T22:37:31.946Z,15.14
2022-10-19T22:40:00.334Z,15.11
2022-10-19T22:42:28.745Z,15.09
2022-10-19T22:44:57.135Z,15.07
2022-10-19T22:47:25.623Z,15.05
2022-10-19T22:49:55.487Z,15.04
2022-10-19T22:52:23.915Z,15.02
2022-10-19T22:54:52.338Z,14.99
2022-10-19T22:57:20.753Z,14.96
2022-10-19T22:59:49.166Z,14.93
2022-10-19T23:02:17.596Z,14.92
2022-10-19T23:04:46.019Z,14.89
2022-10-19T23:07:15.799Z,14.87
2022-10-19T23:09:44.252Z,14.84
2022-10-19T23:12:12.668Z,14.82
2022-10-19T23:14:41.096Z,14.78
2022-10-19T23:17:09.497Z,14.77
2022-10-19T23:19:37.905Z,14.75
2022-10-19T23:22:06.232Z,14.72
2022-10-19T23:24:36.056Z,14.70
2022-10-19T23:27:04.743Z,14.69
2022-10-19T23:29:33.188Z,14.65
2022-10-19T23:32:01.704Z,14.64
2022-10-19T23:34:30.180Z,14.62
2022-10-19T23:36:58.568Z,14.59
2022-10-19T23:39:27.048Z,14.59
2022-10-19T23:41:56.793Z,14.56
2022-10-19T23:44:25.145Z,14.55
2022-10-19T23:46:53.495Z,14.54
2022-10-19T23:49:21.876Z,14.52
2022-10-19T23:51:50.233Z,14.49
2022-10-19T23:54:18.588Z,14.47
2022-10-19T23:56:47.001Z,14.46
2022-10-19T23:59:16.755Z,14.45
